sensor_id;sensor_type;location;lat;lon;timestamp;P1;durP1;ratioP1;P2;durP2;ratioP2
81523;SDS011;70954;49.500;10.416;2024-03-02T00:02:03;2.80;;;2.03;;
81523;SDS011;70954;49.500;10.416;2024-03-02T00:04:33;3.47;;;2.30;;
81523;SDS011;70954;49.500;10.416;2024-03-02T00:06:59;4.05;;;2.40;;
81523;SDS011;70954;49.500;10.416;2024-03-02T00:09:24;2.78;;;2.15;;
81523;SDS011;70954;49.500;10.416;2024-03-02T00:11:50;2.95;;;2.20;;
81523;SDS011;70954;49.500;10.416;2024-03-02T00:14:15;3.58;;;2.22;;
81523;SDS011;70954;49.500;10.416;2024-03-02T00:16:41;2.97;;;2.15;;
81523;SDS011;70954;49.500;10.416;2024-03-02T00:19:07;2.92;;;2.05;;
81523;SDS011;70954;49.500;10.416;2024-03-02T00:21:34;2.67;;;2.05;;
81523;SDS011;70954;49.500;10.416;2024-03-02T00:23:59;2.70;;;1.77;;
81523;SDS011;70954;49.500;10.416;2024-03-02T00:26:26;3.08;;;2.25;;
81523;SDS011;70954;49.500;10.416;2024-03-02T00:28:53;2.90;;;2.00;;
81523;SDS011;70954;49.500;10.416;2024-03-02T00:31:20;2.80;;;2.08;;
81523;SDS011;70954;49.500;10.416;2024-03-02T00:33:48;2.80;;;2.20;;
81523;SDS011;70954;49.500;10.416;2024-03-02T00:36:26;3.70;;;2.33;;
81523;SDS011;70954;49.500;10.416;2024-03-02T00:38:52;2.65;;;1.92;;
81523;SDS011;70954;49.500;10.416;2024-03-02T00:41:20;2.97;;;2.17;;
81523;SDS011;70954;49.500;10.416;2024-03-02T00:46:28;3.05;;;2.05;;
81523;SDS011;70954;49.500;10.416;2024-03-02T00:48:58;2.75;;;2.28;;
81523;SDS011;70954;49.500;10.416;2024-03-02T00:51:25;3.45;;;2.35;;
81523;SDS011;70954;49.500;10.416;2024-03-02T00:53:55;3.10;;;2.30;;
81523;SDS011;70954;49.500;10.416;2024-03-02T00:56:23;3.15;;;2.03;;
81523;SDS011;70954;49.500;10.416;2024-03-02T00:58:49;2.40;;;1.77;;
81523;SDS011;70954;49.500;10.416;2024-03-02T01:01:15;3.03;;;2.28;;
81523;SDS011;70954;49.500;10.416;2024-03-02T01:03:42;3.65;;;2.40;;
81523;SDS011;70954;49.500;10.416;2024-03-02T01:06:07;3.67;;;2.35;;
81523;SDS011;70954;49.500;10.416;2024-03-02T01:08:34;2.90;;;2.20;;
81523;SDS011;70954;49.500;10.416;2024-03-02T01:11:00;3.20;;;2.35;;
81523;SDS011;70954;49.500;10.416;2024-03-02T01:13:25;4.82;;;2.53;;
81523;SDS011;70954;49.500;10.416;2024-03-02T01:15:50;3.53;;;2.17;;
81523;SDS011;70954;49.500;10.416;2024-03-02T01:18:16;3.45;;;2.60;;
81523;SDS011;70954;49.500;10.416;2024-03-02T01:20:41;3.67;;;2.70;;
81523;SDS011;70954;49.500;10.416;2024-03-02T01:23:07;3.08;;;2.28;;
81523;SDS011;70954;49.500;10.416;2024-03-02T01:25:32;3.83;;;2.08;;
81523;SDS011;70954;49.500;10.416;2024-03-02T01:27:58;3.58;;;2.25;;
81523;SDS011;70954;49.500;10.416;2024-03-02T01:30:23;4.55;;;2.85;;
81523;SDS011;70954;49.500;10.416;2024-03-02T01:32:49;3.80;;;2.38;;
81523;SDS011;70954;49.500;10.416;2024-03-02T01:35:14;3.88;;;2.50;;
81523;SDS011;70954;49.500;10.416;2024-03-02T01:37:39;3.88;;;2.30;;
81523;SDS011;70954;49.500;10.416;2024-03-02T01:40:05;3.00;;;2.25;;
81523;SDS011;70954;49.500;10.416;2024-03-02T01:42:31;2.80;;;2.10;;
81523;SDS011;70954;49.500;10.416;2024-03-02T01:44:57;3.83;;;2.70;;
81523;SDS011;70954;49.500;10.416;2024-03-02T01:47:22;3.85;;;2.28;;
81523;SDS011;70954;49.500;10.416;2024-03-02T01:49:48;5.15;;;3.40;;
81523;SDS011;70954;49.500;10.416;2024-03-02T01:52:13;5.68;;;2.67;;
81523;SDS011;70954;49.500;10.416;2024-03-02T01:54:39;4.47;;;2.72;;
81523;SDS011;70954;49.500;10.416;2024-03-02T01:57:04;5.00;;;2.70;;
81523;SDS011;70954;49.500;10.416;2024-03-02T01:59:30;4.50;;;2.50;;
81523;SDS011;70954;49.500;10.416;2024-03-02T02:01:55;3.70;;;2.40;;
81523;SDS011;70954;49.500;10.416;2024-03-02T02:04:21;4.65;;;2.53;;
81523;SDS011;70954;49.500;10.416;2024-03-02T02:06:46;4.68;;;2.90;;
81523;SDS011;70954;49.500;10.416;2024-03-02T02:09:12;5.05;;;2.58;;
81523;SDS011;70954;49.500;10.416;2024-03-02T02:11:37;4.93;;;3.05;;
81523;SDS011;70954;49.500;10.416;2024-03-02T02:14:02;5.32;;;2.95;;
81523;SDS011;70954;49.500;10.416;2024-03-02T02:16:28;4.38;;;2.88;;
81523;SDS011;70954;49.500;10.416;2024-03-02T02:18:53;5.07;;;3.25;;
81523;SDS011;70954;49.500;10.416;2024-03-02T02:21:22;4.82;;;2.83;;
81523;SDS011;70954;49.500;10.416;2024-03-02T02:23:48;4.20;;;2.50;;
81523;SDS011;70954;49.500;10.416;2024-03-02T02:26:13;3.88;;;2.22;;
81523;SDS011;70954;49.500;10.416;2024-03-02T02:28:39;3.97;;;2.40;;
81523;SDS011;70954;49.500;10.416;2024-03-02T02:31:04;4.03;;;2.53;;
81523;SDS011;70954;49.500;10.416;2024-03-02T02:33:29;3.45;;;2.58;;
81523;SDS011;70954;49.500;10.416;2024-03-02T02:35:55;4.70;;;2.90;;
81523;SDS011;70954;49.500;10.416;2024-03-02T02:38:20;3.90;;;2.30;;
81523;SDS011;70954;49.500;10.416;2024-03-02T02:40:46;4.40;;;2.53;;
81523;SDS011;70954;49.500;10.416;2024-03-02T02:43:11;3.70;;;2.47;;
81523;SDS011;70954;49.500;10.416;2024-03-02T02:45:37;3.85;;;2.65;;
81523;SDS011;70954;49.500;10.416;2024-03-02T02:48:02;3.65;;;2.58;;
81523;SDS011;70954;49.500;10.416;2024-03-02T02:50:28;3.85;;;2.38;;
81523;SDS011;70954;49.500;10.416;2024-03-02T02:52:53;4.45;;;2.40;;
81523;SDS011;70954;49.500;10.416;2024-03-02T02:55:19;5.10;;;2.47;;
81523;SDS011;70954;49.500;10.416;2024-03-02T02:57:44;3.10;;;2.42;;
81523;SDS011;70954;49.500;10.416;2024-03-02T03:00:13;4.13;;;2.47;;
81523;SDS011;70954;49.500;10.416;2024-03-02T03:02:43;3.80;;;2.65;;
81523;SDS011;70954;49.500;10.416;2024-03-02T03:05:11;2.97;;;2.10;;
81523;SDS011;70954;49.500;10.416;2024-03-02T03:07:41;3.45;;;2.25;;
81523;SDS011;70954;49.500;10.416;2024-03-02T03:12:33;4.28;;;2.58;;
81523;SDS011;70954;49.500;10.416;2024-03-02T03:14:59;3.00;;;2.25;;
81523;SDS011;70954;49.500;10.416;2024-03-02T03:17:25;3.40;;;1.98;;
81523;SDS011;70954;49.500;10.416;2024-03-02T03:19:51;3.42;;;2.10;;
81523;SDS011;70954;49.500;10.416;2024-03-02T03:22:16;3.63;;;2.47;;
81523;SDS011;70954;49.500;10.416;2024-03-02T03:24:42;3.47;;;2.20;;
81523;SDS011;70954;49.500;10.416;2024-03-02T03:27:08;4.65;;;2.47;;
81523;SDS011;70954;49.500;10.416;2024-03-02T03:29:35;3.75;;;2.20;;
81523;SDS011;70954;49.500;10.416;2024-03-02T03:32:01;3.08;;;2.20;;
81523;SDS011;70954;49.500;10.416;2024-03-02T03:34:26;3.80;;;2.35;;
81523;SDS011;70954;49.500;10.416;2024-03-02T03:36:52;4.13;;;2.83;;
81523;SDS011;70954;49.500;10.416;2024-03-02T03:39:17;4.35;;;2.53;;
81523;SDS011;70954;49.500;10.416;2024-03-02T03:41:42;3.22;;;2.42;;
81523;SDS011;70954;49.500;10.416;2024-03-02T03:44:08;3.63;;;2.17;;
81523;SDS011;70954;49.500;10.416;2024-03-02T03:46:33;3.65;;;2.45;;
81523;SDS011;70954;49.500;10.416;2024-03-02T03:48:59;3.45;;;2.15;;
81523;SDS011;70954;49.500;10.416;2024-03-02T03:51:24;3.08;;;2.05;;
81523;SDS011;70954;49.500;10.416;2024-03-02T03:53:50;3.53;;;2.22;;
81523;SDS011;70954;49.500;10.416;2024-03-02T03:56:15;3.20;;;2.15;;
81523;SDS011;70954;49.500;10.416;2024-03-02T03:58:41;3.08;;;2.10;;
81523;SDS011;70954;49.500;10.416;2024-03-02T04:01:06;3.05;;;2.50;;
81523;SDS011;70954;49.500;10.416;2024-03-02T04:03:32;3.75;;;2.25;;
81523;SDS011;70954;49.500;10.416;2024-03-02T04:05:57;3.58;;;1.98;;
81523;SDS011;70954;49.500;10.416;2024-03-02T04:08:22;3.40;;;2.05;;
81523;SDS011;70954;49.500;10.416;2024-03-02T04:10:48;3.58;;;2.42;;
81523;SDS011;70954;49.500;10.416;2024-03-02T04:13:13;3.45;;;2.17;;
81523;SDS011;70954;49.500;10.416;2024-03-02T04:15:39;2.97;;;2.17;;
81523;SDS011;70954;49.500;10.416;2024-03-02T04:18:04;3.67;;;2.55;;
81523;SDS011;70954;49.500;10.416;2024-03-02T04:20:30;2.92;;;2.13;;
81523;SDS011;70954;49.500;10.416;2024-03-02T04:22:55;3.08;;;2.17;;
81523;SDS011;70954;49.500;10.416;2024-03-02T04:25:21;4.88;;;2.85;;
81523;SDS011;70954;49.500;10.416;2024-03-02T04:27:46;3.22;;;2.08;;
81523;SDS011;70954;49.500;10.416;2024-03-02T04:30:11;3.83;;;2.63;;
81523;SDS011;70954;49.500;10.416;2024-03-02T04:32:37;3.45;;;2.20;;
81523;SDS011;70954;49.500;10.416;2024-03-02T04:35:03;3.55;;;2.25;;
81523;SDS011;70954;49.500;10.416;2024-03-02T04:37:29;4.95;;;2.85;;
81523;SDS011;70954;49.500;10.416;2024-03-02T04:39:54;4.93;;;3.05;;
81523;SDS011;70954;49.500;10.416;2024-03-02T04:42:20;4.43;;;2.85;;
81523;SDS011;70954;49.500;10.416;2024-03-02T04:44:45;5.30;;;3.15;;
81523;SDS011;70954;49.500;10.416;2024-03-02T04:47:10;4.43;;;2.90;;
81523;SDS011;70954;49.500;10.416;2024-03-02T04:49:36;4.60;;;3.22;;
81523;SDS011;70954;49.500;10.416;2024-03-02T04:52:01;3.55;;;2.17;;
81523;SDS011;70954;49.500;10.416;2024-03-02T04:54:27;4.03;;;2.70;;
81523;SDS011;70954;49.500;10.416;2024-03-02T04:56:52;3.97;;;2.40;;
81523;SDS011;70954;49.500;10.416;2024-03-02T04:59:18;2.67;;;1.95;;
81523;SDS011;70954;49.500;10.416;2024-03-02T05:01:44;3.53;;;2.20;;
81523;SDS011;70954;49.500;10.416;2024-03-02T05:04:10;3.10;;;2.08;;
81523;SDS011;70954;49.500;10.416;2024-03-02T05:06:35;2.95;;;1.85;;
81523;SDS011;70954;49.500;10.416;2024-03-02T05:09:01;3.90;;;2.45;;
81523;SDS011;70954;49.500;10.416;2024-03-02T05:11:26;3.78;;;2.22;;
81523;SDS011;70954;49.500;10.416;2024-03-02T05:13:52;4.25;;;2.15;;
81523;SDS011;70954;49.500;10.416;2024-03-02T05:16:17;4.38;;;2.47;;
81523;SDS011;70954;49.500;10.416;2024-03-02T05:18:42;2.88;;;1.90;;
81523;SDS011;70954;49.500;10.416;2024-03-02T05:21:08;3.13;;;2.10;;
81523;SDS011;70954;49.500;10.416;2024-03-02T05:23:33;3.47;;;2.40;;
81523;SDS011;70954;49.500;10.416;2024-03-02T05:25:59;3.20;;;2.10;;
81523;SDS011;70954;49.500;10.416;2024-03-02T05:28:24;3.45;;;2.33;;
81523;SDS011;70954;49.500;10.416;2024-03-02T05:30:49;2.70;;;2.13;;
81523;SDS011;70954;49.500;10.416;2024-03-02T05:33:15;3.20;;;1.83;;
81523;SDS011;70954;49.500;10.416;2024-03-02T05:35:40;3.35;;;2.03;;
81523;SDS011;70954;49.500;10.416;2024-03-02T05:38:06;3.67;;;2.00;;
81523;SDS011;70954;49.500;10.416;2024-03-02T05:40:31;3.22;;;1.85;;
81523;SDS011;70954;49.500;10.416;2024-03-02T05:42:57;2.60;;;1.95;;
81523;SDS011;70954;49.500;10.416;2024-03-02T05:45:22;3.83;;;2.13;;
81523;SDS011;70954;49.500;10.416;2024-03-02T05:47:48;3.30;;;2.22;;
81523;SDS011;70954;49.500;10.416;2024-03-02T05:50:13;2.58;;;1.98;;
81523;SDS011;70954;49.500;10.416;2024-03-02T05:52:39;3.30;;;2.25;;
81523;SDS011;70954;49.500;10.416;2024-03-02T05:55:04;3.85;;;2.50;;
81523;SDS011;70954;49.500;10.416;2024-03-02T05:57:30;2.65;;;2.03;;
81523;SDS011;70954;49.500;10.416;2024-03-02T05:59:55;5.57;;;3.30;;
81523;SDS011;70954;49.500;10.416;2024-03-02T06:02:21;5.35;;;3.08;;
81523;SDS011;70954;49.500;10.416;2024-03-02T06:04:47;7.07;;;4.18;;
81523;SDS011;70954;49.500;10.416;2024-03-02T06:07:12;7.13;;;4.05;;
81523;SDS011;70954;49.500;10.416;2024-03-02T06:09:37;8.52;;;4.53;;
81523;SDS011;70954;49.500;10.416;2024-03-02T06:12:03;6.85;;;3.60;;
81523;SDS011;70954;49.500;10.416;2024-03-02T06:14:29;4.43;;;3.20;;
81523;SDS011;70954;49.500;10.416;2024-03-02T06:16:54;6.15;;;3.60;;
81523;SDS011;70954;49.500;10.416;2024-03-02T06:19:19;7.40;;;3.65;;
81523;SDS011;70954;49.500;10.416;2024-03-02T06:21:45;7.03;;;3.72;;
81523;SDS011;70954;49.500;10.416;2024-03-02T06:24:11;6.97;;;3.30;;
81523;SDS011;70954;49.500;10.416;2024-03-02T06:26:36;6.03;;;3.10;;
81523;SDS011;70954;49.500;10.416;2024-03-02T06:29:02;6.03;;;2.78;;
81523;SDS011;70954;49.500;10.416;2024-03-02T06:31:27;5.32;;;2.78;;
81523;SDS011;70954;49.500;10.416;2024-03-02T06:33:53;5.53;;;2.90;;
81523;SDS011;70954;49.500;10.416;2024-03-02T06:36:18;5.38;;;2.90;;
81523;SDS011;70954;49.500;10.416;2024-03-02T06:38:43;5.35;;;2.97;;
81523;SDS011;70954;49.500;10.416;2024-03-02T06:41:09;4.57;;;2.25;;
81523;SDS011;70954;49.500;10.416;2024-03-02T06:43:34;4.00;;;2.67;;
81523;SDS011;70954;49.500;10.416;2024-03-02T06:46:00;4.90;;;2.92;;
81523;SDS011;70954;49.500;10.416;2024-03-02T06:48:25;3.40;;;2.30;;
81523;SDS011;70954;49.500;10.416;2024-03-02T06:50:51;3.30;;;2.30;;
81523;SDS011;70954;49.500;10.416;2024-03-02T06:53:16;3.17;;;2.10;;
81523;SDS011;70954;49.500;10.416;2024-03-02T06:55:42;3.60;;;2.20;;
81523;SDS011;70954;49.500;10.416;2024-03-02T06:58:07;3.42;;;2.28;;
81523;SDS011;70954;49.500;10.416;2024-03-02T07:00:32;3.63;;;2.20;;
81523;SDS011;70954;49.500;10.416;2024-03-02T07:02:58;4.35;;;2.55;;
81523;SDS011;70954;49.500;10.416;2024-03-02T07:05:23;4.28;;;2.53;;
81523;SDS011;70954;49.500;10.416;2024-03-02T07:07:49;3.85;;;2.72;;
81523;SDS011;70954;49.500;10.416;2024-03-02T07:10:14;3.38;;;2.30;;
81523;SDS011;70954;49.500;10.416;2024-03-02T07:12:40;3.63;;;2.15;;
81523;SDS011;70954;49.500;10.416;2024-03-02T07:15:05;2.72;;;1.75;;
81523;SDS011;70954;49.500;10.416;2024-03-02T07:17:31;4.18;;;2.45;;
81523;SDS011;70954;49.500;10.416;2024-03-02T07:19:57;3.78;;;2.60;;
81523;SDS011;70954;49.500;10.416;2024-03-02T07:22:23;3.00;;;2.20;;
81523;SDS011;70954;49.500;10.416;2024-03-02T07:24:48;3.85;;;2.40;;
81523;SDS011;70954;49.500;10.416;2024-03-02T07:27:14;4.78;;;3.03;;
81523;SDS011;70954;49.500;10.416;2024-03-02T07:29:40;4.40;;;3.00;;
81523;SDS011;70954;49.500;10.416;2024-03-02T07:32:06;4.95;;;2.70;;
81523;SDS011;70954;49.500;10.416;2024-03-02T07:34:32;3.33;;;2.33;;
81523;SDS011;70954;49.500;10.416;2024-03-02T07:36:58;4.47;;;2.83;;
81523;SDS011;70954;49.500;10.416;2024-03-02T07:39:24;4.00;;;2.58;;
81523;SDS011;70954;49.500;10.416;2024-03-02T07:41:49;4.57;;;2.63;;
81523;SDS011;70954;49.500;10.416;2024-03-02T07:44:15;4.07;;;2.90;;
81523;SDS011;70954;49.500;10.416;2024-03-02T07:46:41;4.78;;;2.60;;
81523;SDS011;70954;49.500;10.416;2024-03-02T07:51:36;3.25;;;2.17;;
81523;SDS011;70954;49.500;10.416;2024-03-02T07:54:01;3.70;;;2.50;;
81523;SDS011;70954;49.500;10.416;2024-03-02T07:56:27;4.22;;;2.50;;
81523;SDS011;70954;49.500;10.416;2024-03-02T07:58:52;3.70;;;2.42;;
81523;SDS011;70954;49.500;10.416;2024-03-02T08:01:18;4.63;;;2.65;;
81523;SDS011;70954;49.500;10.416;2024-03-02T08:03:44;4.85;;;2.75;;
81523;SDS011;70954;49.500;10.416;2024-03-02T08:06:09;3.78;;;2.65;;
81523;SDS011;70954;49.500;10.416;2024-03-02T08:08:35;4.57;;;2.58;;
81523;SDS011;70954;49.500;10.416;2024-03-02T08:11:00;3.63;;;2.63;;
81523;SDS011;70954;49.500;10.416;2024-03-02T08:13:26;3.30;;;2.40;;
81523;SDS011;70954;49.500;10.416;2024-03-02T08:15:51;4.47;;;3.17;;
81523;SDS011;70954;49.500;10.416;2024-03-02T08:18:18;4.05;;;2.78;;
81523;SDS011;70954;49.500;10.416;2024-03-02T08:20:43;4.65;;;2.50;;
81523;SDS011;70954;49.500;10.416;2024-03-02T08:23:09;4.63;;;2.95;;
81523;SDS011;70954;49.500;10.416;2024-03-02T08:25:35;4.85;;;2.70;;
81523;SDS011;70954;49.500;10.416;2024-03-02T08:28:00;4.65;;;2.70;;
81523;SDS011;70954;49.500;10.416;2024-03-02T08:30:26;3.40;;;2.42;;
81523;SDS011;70954;49.500;10.416;2024-03-02T08:32:51;4.13;;;3.00;;
81523;SDS011;70954;49.500;10.416;2024-03-02T08:35:17;4.95;;;3.30;;
81523;SDS011;70954;49.500;10.416;2024-03-02T08:37:42;4.75;;;3.00;;
81523;SDS011;70954;49.500;10.416;2024-03-02T08:40:08;4.32;;;2.92;;
81523;SDS011;70954;49.500;10.416;2024-03-02T08:42:33;4.63;;;2.78;;
81523;SDS011;70954;49.500;10.416;2024-03-02T08:44:59;4.00;;;2.80;;
81523;SDS011;70954;49.500;10.416;2024-03-02T08:47:25;3.88;;;2.58;;
81523;SDS011;70954;49.500;10.416;2024-03-02T08:49:51;3.70;;;2.50;;
81523;SDS011;70954;49.500;10.416;2024-03-02T08:52:16;4.50;;;3.03;;
81523;SDS011;70954;49.500;10.416;2024-03-02T08:54:41;5.15;;;3.17;;
81523;SDS011;70954;49.500;10.416;2024-03-02T08:57:07;3.92;;;2.72;;
81523;SDS011;70954;49.500;10.416;2024-03-02T08:59:32;3.70;;;2.53;;
81523;SDS011;70954;49.500;10.416;2024-03-02T09:01:58;4.57;;;3.25;;
81523;SDS011;70954;49.500;10.416;2024-03-02T09:04:24;3.92;;;3.20;;
81523;SDS011;70954;49.500;10.416;2024-03-02T09:06:49;4.28;;;2.70;;
81523;SDS011;70954;49.500;10.416;2024-03-02T09:09:15;4.70;;;3.08;;
81523;SDS011;70954;49.500;10.416;2024-03-02T09:11:40;3.95;;;2.53;;
81523;SDS011;70954;49.500;10.416;2024-03-02T09:14:06;4.07;;;2.72;;
81523;SDS011;70954;49.500;10.416;2024-03-02T09:16:31;4.90;;;2.92;;
81523;SDS011;70954;49.500;10.416;2024-03-02T09:18:57;3.35;;;2.55;;
81523;SDS011;70954;49.500;10.416;2024-03-02T09:21:23;5.03;;;3.05;;
81523;SDS011;70954;49.500;10.416;2024-03-02T09:23:48;3.70;;;2.47;;
81523;SDS011;70954;49.500;10.416;2024-03-02T09:26:14;4.38;;;2.88;;
81523;SDS011;70954;49.500;10.416;2024-03-02T09:28:43;3.53;;;2.50;;
81523;SDS011;70954;49.500;10.416;2024-03-02T09:31:08;3.95;;;2.38;;
81523;SDS011;70954;49.500;10.416;2024-03-02T09:33:34;3.55;;;2.60;;
81523;SDS011;70954;49.500;10.416;2024-03-02T09:35:59;4.30;;;2.90;;
81523;SDS011;70954;49.500;10.416;2024-03-02T09:38:25;3.92;;;2.70;;
81523;SDS011;70954;49.500;10.416;2024-03-02T09:40:50;4.32;;;2.90;;
81523;SDS011;70954;49.500;10.416;2024-03-02T09:43:15;3.60;;;2.40;;
81523;SDS011;70954;49.500;10.416;2024-03-02T09:45:41;4.05;;;2.58;;
81523;SDS011;70954;49.500;10.416;2024-03-02T09:48:07;3.40;;;2.35;;
81523;SDS011;70954;49.500;10.416;2024-03-02T09:50:32;3.58;;;2.63;;
81523;SDS011;70954;49.500;10.416;2024-03-02T09:52:58;3.30;;;2.33;;
81523;SDS011;70954;49.500;10.416;2024-03-02T09:55:24;3.35;;;2.38;;
81523;SDS011;70954;49.500;10.416;2024-03-02T09:57:49;2.72;;;2.08;;
81523;SDS011;70954;49.500;10.416;2024-03-02T10:00:15;3.63;;;2.40;;
81523;SDS011;70954;49.500;10.416;2024-03-02T10:02:41;4.32;;;2.90;;
81523;SDS011;70954;49.500;10.416;2024-03-02T10:05:10;3.65;;;2.30;;
81523;SDS011;70954;49.500;10.416;2024-03-02T10:07:36;3.90;;;2.53;;
81523;SDS011;70954;49.500;10.416;2024-03-02T10:10:19;4.50;;;2.58;;
81523;SDS011;70954;49.500;10.416;2024-03-02T10:12:45;3.30;;;2.20;;
81523;SDS011;70954;49.500;10.416;2024-03-02T10:15:11;3.80;;;2.60;;
81523;SDS011;70954;49.500;10.416;2024-03-02T10:17:36;3.15;;;2.25;;
81523;SDS011;70954;49.500;10.416;2024-03-02T10:20:20;4.07;;;2.33;;
81523;SDS011;70954;49.500;10.416;2024-03-02T10:22:47;3.58;;;2.20;;
81523;SDS011;70954;49.500;10.416;2024-03-02T10:25:27;3.60;;;2.20;;
81523;SDS011;70954;49.500;10.416;2024-03-02T10:28:00;3.13;;;2.38;;
81523;SDS011;70954;49.500;10.416;2024-03-02T10:30:26;4.05;;;2.42;;
81523;SDS011;70954;49.500;10.416;2024-03-02T10:32:53;3.70;;;2.45;;
81523;SDS011;70954;49.500;10.416;2024-03-02T10:35:19;3.20;;;2.25;;
81523;SDS011;70954;49.500;10.416;2024-03-02T10:37:47;3.90;;;2.08;;
81523;SDS011;70954;49.500;10.416;2024-03-02T10:40:13;3.35;;;2.35;;
81523;SDS011;70954;49.500;10.416;2024-03-02T10:42:39;3.17;;;2.05;;
81523;SDS011;70954;49.500;10.416;2024-03-02T10:45:10;2.85;;;1.92;;
81523;SDS011;70954;49.500;10.416;2024-03-02T10:47:37;2.85;;;2.25;;
81523;SDS011;70954;49.500;10.416;2024-03-02T10:50:04;4.03;;;2.47;;
81523;SDS011;70954;49.500;10.416;2024-03-02T10:52:30;2.80;;;2.08;;
81523;SDS011;70954;49.500;10.416;2024-03-02T10:54:55;3.65;;;2.20;;
81523;SDS011;70954;49.500;10.416;2024-03-02T10:57:21;2.70;;;1.90;;
81523;SDS011;70954;49.500;10.416;2024-03-02T10:59:52;2.40;;;1.90;;
81523;SDS011;70954;49.500;10.416;2024-03-02T11:02:21;7.75;;;5.15;;
81523;SDS011;70954;49.500;10.416;2024-03-02T11:04:49;29.17;;;12.77;;
81523;SDS011;70954;49.500;10.416;2024-03-02T11:07:19;7.13;;;4.10;;
81523;SDS011;70954;49.500;10.416;2024-03-02T11:09:52;4.65;;;2.78;;
81523;SDS011;70954;49.500;10.416;2024-03-02T11:12:43;2.75;;;1.98;;
81523;SDS011;70954;49.500;10.416;2024-03-02T11:15:18;2.72;;;1.58;;
81523;SDS011;70954;49.500;10.416;2024-03-02T11:17:43;2.40;;;1.63;;
81523;SDS011;70954;49.500;10.416;2024-03-02T11:20:09;1.67;;;1.48;;
81523;SDS011;70954;49.500;10.416;2024-03-02T11:22:36;2.45;;;1.63;;
81523;SDS011;70954;49.500;10.416;2024-03-02T11:25:02;2.38;;;1.60;;
81523;SDS011;70954;49.500;10.416;2024-03-02T11:33:01;2.33;;;1.67;;
81523;SDS011;70954;49.500;10.416;2024-03-02T11:35:27;1.80;;;1.50;;
81523;SDS011;70954;49.500;10.416;2024-03-02T11:37:53;2.03;;;1.42;;
81523;SDS011;70954;49.500;10.416;2024-03-02T11:40:22;1.85;;;1.33;;
81523;SDS011;70954;49.500;10.416;2024-03-02T11:42:49;2.20;;;1.52;;
81523;SDS011;70954;49.500;10.416;2024-03-02T11:45:24;2.10;;;1.33;;
81523;SDS011;70954;49.500;10.416;2024-03-02T11:47:54;2.45;;;1.40;;
81523;SDS011;70954;49.500;10.416;2024-03-02T11:50:29;2.05;;;1.45;;
81523;SDS011;70954;49.500;10.416;2024-03-02T11:52:56;1.98;;;1.40;;
81523;SDS011;70954;49.500;10.416;2024-03-02T11:55:23;1.65;;;1.38;;
81523;SDS011;70954;49.500;10.416;2024-03-02T11:57:51;1.50;;;1.20;;
81523;SDS011;70954;49.500;10.416;2024-03-02T12:00:18;1.80;;;1.20;;
81523;SDS011;70954;49.500;10.416;2024-03-02T12:02:44;2.30;;;1.50;;
81523;SDS011;70954;49.500;10.416;2024-03-02T12:05:12;1.48;;;1.15;;
81523;SDS011;70954;49.500;10.416;2024-03-02T12:07:39;1.33;;;1.13;;
81523;SDS011;70954;49.500;10.416;2024-03-02T12:10:04;1.40;;;1.08;;
81523;SDS011;70954;49.500;10.416;2024-03-02T12:12:30;2.13;;;1.10;;
81523;SDS011;70954;49.500;10.416;2024-03-02T12:14:56;2.30;;;1.40;;
81523;SDS011;70954;49.500;10.416;2024-03-02T12:17:21;1.42;;;1.10;;
81523;SDS011;70954;49.500;10.416;2024-03-02T12:19:47;1.77;;;1.35;;
81523;SDS011;70954;49.500;10.416;2024-03-02T12:22:13;1.52;;;1.13;;
81523;SDS011;70954;49.500;10.416;2024-03-02T12:24:39;2.13;;;1.20;;
81523;SDS011;70954;49.500;10.416;2024-03-02T12:27:05;1.75;;;1.20;;
81523;SDS011;70954;49.500;10.416;2024-03-02T12:29:31;1.77;;;1.30;;
81523;SDS011;70954;49.500;10.416;2024-03-02T12:31:58;3.17;;;1.50;;
81523;SDS011;70954;49.500;10.416;2024-03-02T12:34:25;1.42;;;1.30;;
81523;SDS011;70954;49.500;10.416;2024-03-02T12:36:51;1.73;;;1.20;;
81523;SDS011;70954;49.500;10.416;2024-03-02T12:39:16;1.70;;;1.08;;
81523;SDS011;70954;49.500;10.416;2024-03-02T12:41:43;1.63;;;1.20;;
81523;SDS011;70954;49.500;10.416;2024-03-02T12:44:09;2.17;;;1.52;;
81523;SDS011;70954;49.500;10.416;2024-03-02T12:46:35;1.98;;;1.55;;
81523;SDS011;70954;49.500;10.416;2024-03-02T12:49:05;2.28;;;1.70;;
81523;SDS011;70954;49.500;10.416;2024-03-02T12:51:33;2.10;;;1.42;;
81523;SDS011;70954;49.500;10.416;2024-03-02T12:53:59;2.55;;;1.73;;
81523;SDS011;70954;49.500;10.416;2024-03-02T12:56:25;2.13;;;1.60;;
81523;SDS011;70954;49.500;10.416;2024-03-02T12:58:54;3.40;;;1.75;;
81523;SDS011;70954;49.500;10.416;2024-03-02T13:01:20;2.70;;;1.52;;
81523;SDS011;70954;49.500;10.416;2024-03-02T13:03:48;2.10;;;1.60;;
81523;SDS011;70954;49.500;10.416;2024-03-02T13:06:14;2.60;;;1.75;;
81523;SDS011;70954;49.500;10.416;2024-03-02T13:08:39;2.15;;;1.60;;
81523;SDS011;70954;49.500;10.416;2024-03-02T13:11:05;2.72;;;1.30;;
81523;SDS011;70954;49.500;10.416;2024-03-02T13:13:30;1.92;;;1.40;;
81523;SDS011;70954;49.500;10.416;2024-03-02T13:15:56;1.60;;;1.27;;
81523;SDS011;70954;49.500;10.416;2024-03-02T13:18:22;1.80;;;1.40;;
81523;SDS011;70954;49.500;10.416;2024-03-02T13:20:47;2.50;;;1.40;;
81523;SDS011;70954;49.500;10.416;2024-03-02T13:23:13;2.60;;;1.67;;
81523;SDS011;70954;49.500;10.416;2024-03-02T13:25:39;2.30;;;1.38;;
81523;SDS011;70954;49.500;10.416;2024-03-02T13:28:04;2.30;;;1.50;;
81523;SDS011;70954;49.500;10.416;2024-03-02T13:30:30;3.63;;;1.50;;
81523;SDS011;70954;49.500;10.416;2024-03-02T13:32:56;3.17;;;1.50;;
81523;SDS011;70954;49.500;10.416;2024-03-02T13:35:21;1.60;;;1.20;;
81523;SDS011;70954;49.500;10.416;2024-03-02T13:37:47;1.83;;;1.50;;
81523;SDS011;70954;49.500;10.416;2024-03-02T13:40:12;2.20;;;1.48;;
81523;SDS011;70954;49.500;10.416;2024-03-02T13:42:38;2.15;;;1.27;;
81523;SDS011;70954;49.500;10.416;2024-03-02T13:48:05;2.15;;;1.30;;
81523;SDS011;70954;49.500;10.416;2024-03-02T13:50:31;2.08;;;1.38;;
81523;SDS011;70954;49.500;10.416;2024-03-02T13:52:56;2.38;;;1.65;;
81523;SDS011;70954;49.500;10.416;2024-03-02T13:55:22;2.53;;;1.60;;
81523;SDS011;70954;49.500;10.416;2024-03-02T13:57:48;3.80;;;2.15;;
81523;SDS011;70954;49.500;10.416;2024-03-02T14:00:13;4.85;;;3.60;;
81523;SDS011;70954;49.500;10.416;2024-03-02T14:02:39;5.10;;;3.20;;
81523;SDS011;70954;49.500;10.416;2024-03-02T14:05:05;2.97;;;2.15;;
81523;SDS011;70954;49.500;10.416;2024-03-02T14:07:30;3.38;;;2.25;;
81523;SDS011;70954;49.500;10.416;2024-03-02T14:09:56;3.17;;;2.10;;
81523;SDS011;70954;49.500;10.416;2024-03-02T14:12:21;2.95;;;2.10;;
81523;SDS011;70954;49.500;10.416;2024-03-02T14:14:47;4.05;;;2.50;;
81523;SDS011;70954;49.500;10.416;2024-03-02T14:17:12;3.78;;;2.40;;
81523;SDS011;70954;49.500;10.416;2024-03-02T14:19:38;4.97;;;2.38;;
81523;SDS011;70954;49.500;10.416;2024-03-02T14:22:03;3.35;;;2.10;;
81523;SDS011;70954;49.500;10.416;2024-03-02T14:24:29;3.45;;;2.10;;
81523;SDS011;70954;49.500;10.416;2024-03-02T14:26:54;2.75;;;2.10;;
81523;SDS011;70954;49.500;10.416;2024-03-02T14:29:20;3.10;;;2.00;;
81523;SDS011;70954;49.500;10.416;2024-03-02T14:31:45;3.13;;;2.10;;
81523;SDS011;70954;49.500;10.416;2024-03-02T14:34:11;4.32;;;2.38;;
81523;SDS011;70954;49.500;10.416;2024-03-02T14:36:36;3.88;;;2.50;;
81523;SDS011;70954;49.500;10.416;2024-03-02T14:39:02;3.42;;;2.25;;
81523;SDS011;70954;49.500;10.416;2024-03-02T14:41:27;4.00;;;2.55;;
81523;SDS011;70954;49.500;10.416;2024-03-02T14:43:53;2.80;;;2.10;;